Terminal Aerodrome Forecast
Issued by NWS

Current Version | Previous Version | Text Only | Print | Product List | Glossary On
Versions: 1 2 3 4 5 6 7 8 9 10 11 12 13 14 15 16 17 18 19 20 21
237
FTUS46 KSEW 081127 AAB
TAFOLM
TAF AMD
KOLM 081127Z 0811/0912 00000KT 2SM BR SCT005 SCT200
      TEMPO 0812/0816 1/4SM FG VV001
     FM081900 VRB03KT 2SM BR SCT005 SCT200
     FM082100 03004KT P6SM SKC
     FM090500 04004KT 3SM BR SCT005
     FM090800 00000KT 1SM BR BKN003=

USA.gov is the U.S. government's official web portal to all federal, state and local government web resources and services.